Terminal Aerodrome Forecast
Issued by NWS

Home | Current Version | Previous Version | Text Only | Print | Product List | Glossary On
Versions: 1 2 3 4 5 6 7 8 9 10 11 12 13
000
FTUS43 KDDC 241120
TAFHYS
TAF
KHYS 241120Z 2412/2512 36005KT P6SM VCSH BKN100
     FM241600 05010KT P6SM BKN100
     FM250700 06008KT P6SM BKN040=

USA.gov is the U.S. government's official web portal to all federal, state and local government web resources and services.